Estrella De Miguel — EA5275 — position and weather

sailwx.info

Track history (hours):
 
Tides and Currents Weather Stations Pressure Air Temp Water Temp Dewpoint Dewpoint Depression Visibility Wind Speed Wind Dir Waves Ship Positions

Estrella De Miguel

Last reported at 2017-Nov-28 07:03 UTC. Time now 2017-Dec-18 12:48 UTC.
Position N 37°56' W 000°39'.
Warning: this ship's position is 20 days out of date.

Length 22 m.

MMSI: 224190270.

Date/timePositionNaut miles runAvg speedWind from/ knotsBaromVisibWave heightAir tempDewpointWater temp
2017-Nov-28 07:03N 37°56' W 000°39'0 0.5
2017-Nov-28 06:58N 37°56' W 000°39'4 5.2
2017-Nov-28 06:08N 37°53' W 000°35'8 7.6
2017-Nov-28 05:09N 37°46' W 000°32'710.1
2017-Nov-28 04:29N 37°40' W 000°36'2 5.0
2017-Nov-28 04:00N 37°38' W 000°39'0 0.2
2017-Nov-28 03:30N 37°38' W 000°39'19 0.8
2017-Nov-27 03:58N 37°57' W 000°36'3 6.3
2017-Nov-27 03:30N 37°56' W 000°39'3 0.1
2017-Nov-26 04:45N 37°58' W 000°41'0 0.0
2017-Nov-25 22:18N 37°58' W 000°41'0 0.0
2017-Nov-25 19:15N 37°58' W 000°41'0 0.0
2017-Nov-25 19:00N 37°58' W 000°41'0 0.0
2017-Nov-25 18:28N 37°58' W 000°41'0 0.0
2017-Nov-25 17:54N 37°58' W 000°41'0 0.0
2017-Nov-25 15:37N 37°58' W 000°41'0 0.0
2017-Nov-25 12:19N 37°58' W 000°41'0 0.0
2017-Nov-25 11:58N 37°58' W 000°41'0 0.0
2017-Nov-25 11:30N 37°58' W 000°41'0 0.0
2017-Nov-25 11:00N 37°58' W 000°41'0 0.0
2017-Nov-25 10:30N 37°58' W 000°41'0 0.0
2017-Nov-25 09:59N 37°58' W 000°41'0 0.0
2017-Nov-25 09:29N 37°58' W 000°41'0 0.0
2017-Nov-25 08:59N 37°58' W 000°41'0 0.0
2017-Nov-25 08:27N 37°58' W 000°41'0 0.0
2017-Nov-25 07:45N 37°58' W 000°41'0 0.0
2017-Nov-25 07:20N 37°58' W 000°41'0 0.0
2017-Nov-25 07:00N 37°58' W 000°41'0 0.0
2017-Nov-25 05:00N 37°58' W 000°41'0 0.0
2017-Nov-24 16:20N 37°58' W 000°41'0 0.0
2017-Nov-24 16:00N 37°58' W 000°41'0 0.0
2017-Nov-24 15:28N 37°58' W 000°41'0 0.0
2017-Nov-24 15:00N 37°58' W 000°41'0 0.0
2017-Nov-24 14:30N 37°58' W 000°41'0 0.0
2017-Nov-24 13:58N 37°58' W 000°41'0 0.0
2017-Nov-24 13:28N 37°58' W 000°41'0 0.0
2017-Nov-24 12:53N 37°58' W 000°41'0 0.0
2017-Nov-24 12:30N 37°58' W 000°41'0 0.0
2017-Nov-24 11:45N 37°58' W 000°41'0 0.0
2017-Nov-24 11:28N 37°58' W 000°41'14 1.9
2017-Nov-24 04:11N 37°45' W 000°35'3 7.9
2017-Nov-24 03:48N 37°43' W 000°36'1 4.0
2017-Nov-24 03:30N 37°44' W 000°36'2 4.6
2017-Nov-24 02:58N 37°46' W 000°34'6 8.2
2017-Nov-24 02:12N 37°52' W 000°35'2 8.7
2017-Nov-24 02:00N 37°53' W 000°36'5 9.1
2017-Nov-24 01:30N 37°57' W 000°40'2 0.2
2017-Nov-23 14:12N 37°58' W 000°41'0 0.0
2017-Nov-23 13:48N 37°58' W 000°41'0 0.0
2017-Nov-23 13:28N 37°58' W 000°41'0 0.0
2017-Nov-23 09:48N 37°58' W 000°41'0 0.0
2017-Nov-23 09:25N 37°58' W 000°41'0 0.0
2017-Nov-23 08:59N 37°58' W 000°41'0 0.2
2017-Nov-23 08:18N 37°58' W 000°41'3 8.7
2017-Nov-23 07:58N 37°56' W 000°39'7 6.2
2017-Nov-23 06:46N 37°50' W 000°34'0 0.5
2017-Nov-23 06:24N 37°50' W 000°34'2 6.2
2017-Nov-23 06:00N 37°52' W 000°35'8 3.6
2017-Nov-23 03:43N 37°59' W 000°30'0 0.5
2017-Nov-23 03:29N 37°60' W 000°30'  
Track history (hours):
 
Tides and Currents Weather Stations Pressure Air Temp Water Temp Dewpoint Dewpoint Depression Visibility Wind Speed Wind Dir Waves Ship Positions

Estrella De Miguel

Last reported at 2017-Nov-28 07:03 UTC. Time now 2017-Dec-18 12:48 UTC.
Position N 37°56' W 000°39'.
Warning: this ship's position is 20 days out of date.

Length 22 m.

MMSI: 224190270.

Date/timePositionNaut miles runAvg speedWind from/ knotsBaromVisibWave heightAir tempDewpointWater temp
2017-Nov-28 07:03N 37°56' W 000°39'0 0.5
2017-Nov-28 06:58N 37°56' W 000°39'4 5.2
2017-Nov-28 06:08N 37°53' W 000°35'8 7.6
2017-Nov-28 05:09N 37°46' W 000°32'710.1
2017-Nov-28 04:29N 37°40' W 000°36'2 5.0
2017-Nov-28 04:00N 37°38' W 000°39'0 0.2
2017-Nov-28 03:30N 37°38' W 000°39'19 0.8
2017-Nov-27 03:58N 37°57' W 000°36'3 6.3
2017-Nov-27 03:30N 37°56' W 000°39'3 0.1
2017-Nov-26 04:45N 37°58' W 000°41'0 0.0
2017-Nov-25 22:18N 37°58' W 000°41'0 0.0
2017-Nov-25 19:15N 37°58' W 000°41'0 0.0
2017-Nov-25 19:00N 37°58' W 000°41'0 0.0
2017-Nov-25 18:28N 37°58' W 000°41'0 0.0
2017-Nov-25 17:54N 37°58' W 000°41'0 0.0
2017-Nov-25 15:37N 37°58' W 000°41'0 0.0
2017-Nov-25 12:19N 37°58' W 000°41'0 0.0
2017-Nov-25 11:58N 37°58' W 000°41'0 0.0
2017-Nov-25 11:30N 37°58' W 000°41'0 0.0
2017-Nov-25 11:00N 37°58' W 000°41'0 0.0
2017-Nov-25 10:30N 37°58' W 000°41'0 0.0
2017-Nov-25 09:59N 37°58' W 000°41'0 0.0
2017-Nov-25 09:29N 37°58' W 000°41'0 0.0
2017-Nov-25 08:59N 37°58' W 000°41'0 0.0
2017-Nov-25 08:27N 37°58' W 000°41'0 0.0
2017-Nov-25 07:45N 37°58' W 000°41'0 0.0
2017-Nov-25 07:20N 37°58' W 000°41'0 0.0
2017-Nov-25 07:00N 37°58' W 000°41'0 0.0
2017-Nov-25 05:00N 37°58' W 000°41'0 0.0
2017-Nov-24 16:20N 37°58' W 000°41'0 0.0
2017-Nov-24 16:00N 37°58' W 000°41'0 0.0
2017-Nov-24 15:28N 37°58' W 000°41'0 0.0
2017-Nov-24 15:00N 37°58' W 000°41'0 0.0
2017-Nov-24 14:30N 37°58' W 000°41'0 0.0
2017-Nov-24 13:58N 37°58' W 000°41'0 0.0
2017-Nov-24 13:28N 37°58' W 000°41'0 0.0
2017-Nov-24 12:53N 37°58' W 000°41'0 0.0
2017-Nov-24 12:30N 37°58' W 000°41'0 0.0
2017-Nov-24 11:45N 37°58' W 000°41'0 0.0
2017-Nov-24 11:28N 37°58' W 000°41'14 1.9
2017-Nov-24 04:11N 37°45' W 000°35'3 7.9
2017-Nov-24 03:48N 37°43' W 000°36'1 4.0
2017-Nov-24 03:30N 37°44' W 000°36'2 4.6
2017-Nov-24 02:58N 37°46' W 000°34'6 8.2
2017-Nov-24 02:12N 37°52' W 000°35'2 8.7
2017-Nov-24 02:00N 37°53' W 000°36'5 9.1
2017-Nov-24 01:30N 37°57' W 000°40'2 0.2
2017-Nov-23 14:12N 37°58' W 000°41'0 0.0
2017-Nov-23 13:48N 37°58' W 000°41'0 0.0
2017-Nov-23 13:28N 37°58' W 000°41'0 0.0
2017-Nov-23 09:48N 37°58' W 000°41'0 0.0
2017-Nov-23 09:25N 37°58' W 000°41'0 0.0
2017-Nov-23 08:59N 37°58' W 000°41'0 0.2
2017-Nov-23 08:18N 37°58' W 000°41'3 8.7
2017-Nov-23 07:58N 37°56' W 000°39'7 6.2
2017-Nov-23 06:46N 37°50' W 000°34'0 0.5
2017-Nov-23 06:24N 37°50' W 000°34'2 6.2
2017-Nov-23 06:00N 37°52' W 000°35'8 3.6
2017-Nov-23 03:43N 37°59' W 000°30'0 0.5
2017-Nov-23 03:29N 37°60' W 000°30'  

Dump ship's entire track history